createdAt,value
2022-10-17T00:01:12.116Z,16.70
2022-10-17T00:03:40.733Z,19.38
2022-10-17T00:06:15.084Z,17.45
2022-10-17T00:08:44.712Z,17.88
2022-10-17T00:11:23.429Z,17.20
2022-10-17T00:13:55.252Z,17.83
2022-10-17T00:16:33.985Z,18.73
2022-10-17T00:19:02.025Z,17.52
2022-10-17T00:21:30.020Z,17.42
2022-10-17T00:23:59.423Z,18.23
2022-10-17T00:26:29.694Z,18.13
2022-10-17T00:28:58.421Z,16.70
2022-10-17T00:31:26.407Z,19.10
2022-10-17T00:33:54.912Z,12.63
2022-10-17T00:36:26.294Z,17.45
2022-10-17T00:41:30.220Z,14.98
2022-10-17T00:44:02.622Z,14.07
2022-10-17T00:46:34.222Z,15.95
2022-10-17T00:49:12.938Z,13.40
2022-10-17T00:51:49.582Z,18.48
2022-10-17T00:54:23.300Z,14.57
2022-10-17T00:56:52.443Z,17.88
2022-10-17T00:59:22.121Z,15.95
2022-10-17T01:02:14.960Z,13.98
2022-10-17T01:04:46.790Z,14.52
2022-10-17T01:07:15.151Z,15.00
2022-10-17T01:09:45.885Z,12.40
2022-10-17T01:12:36.300Z,15.93
2022-10-17T01:15:17.431Z,14.45
2022-10-17T01:18:29.322Z,14.75
2022-10-17T01:21:15.154Z,13.18
2022-10-17T01:24:27.999Z,15.68
2022-10-17T01:27:36.150Z,15.63
2022-10-17T01:30:09.916Z,15.27
2022-10-17T01:33:03.806Z,18.30
2022-10-17T01:35:45.143Z,15.27
2022-10-17T01:38:44.425Z,15.77
2022-10-17T01:41:33.953Z,15.75
2022-10-17T01:44:20.308Z,12.77
2022-10-17T01:46:54.384Z,13.18
2022-10-17T01:49:27.923Z,14.77
2022-10-17T01:52:12.678Z,18.77
2022-10-17T01:54:50.359Z,13.98
2022-10-17T01:57:33.634Z,14.27
2022-10-17T02:00:06.540Z,19.17
2022-10-17T02:02:44.121Z,17.38
2022-10-17T02:05:12.506Z,15.52
2022-10-17T02:07:42.581Z,13.13
2022-10-17T02:10:26.627Z,18.63
2022-10-17T02:13:20.232Z,15.35
2022-10-17T02:16:20.087Z,16.30
2022-10-17T02:19:11.973Z,13.13
2022-10-17T02:21:56.071Z,14.50
2022-10-17T02:24:59.651Z,13.35
2022-10-17T02:27:48.660Z,16.83
2022-10-17T02:30:53.266Z,30.42
2022-10-17T02:33:37.188Z,22.85
2022-10-17T02:36:22.161Z,23.42
2022-10-17T02:38:52.763Z,20.77
2022-10-17T02:41:22.370Z,15.82
2022-10-17T02:43:55.632Z,16.35
2022-10-17T02:46:28.902Z,16.35
2022-10-17T02:49:22.043Z,16.40
2022-10-17T02:52:06.710Z,17.85
2022-10-17T02:54:48.704Z,22.23
2022-10-17T02:59:55.984Z,28.42
2022-10-17T03:02:25.228Z,16.75
2022-10-17T03:04:53.738Z,13.85
2022-10-17T03:07:21.724Z,16.55
2022-10-17T03:09:49.692Z,13.77
2022-10-17T03:12:17.655Z,16.30
2022-10-17T03:14:45.884Z,15.23
2022-10-17T03:17:13.906Z,13.75
2022-10-17T03:19:42.060Z,18.20
2022-10-17T03:22:10.346Z,15.20
2022-10-17T03:24:39.792Z,19.95
2022-10-17T03:27:08.067Z,19.67
2022-10-17T03:29:38.349Z,20.35
2022-10-17T03:32:08.219Z,15.60
2022-10-17T03:34:37.907Z,20.55
2022-10-17T03:37:05.940Z,15.43
2022-10-17T03:39:36.096Z,16.10
2022-10-17T03:42:04.521Z,14.95
2022-10-17T03:44:32.954Z,15.00
2022-10-17T03:47:00.953Z,13.48
2022-10-17T03:49:28.953Z,15.73
2022-10-17T03:51:57.050Z,16.23
2022-10-17T03:54:26.027Z,15.63
2022-10-17T03:56:54.239Z,20.85
2022-10-17T03:59:22.445Z,14.68
2022-10-17T04:02:00.017Z,15.68
2022-10-17T04:04:29.239Z,16.60
2022-10-17T04:06:57.336Z,15.25
2022-10-17T04:09:25.731Z,14.30
2022-10-17T04:12:02.448Z,16.75
2022-10-17T04:14:32.508Z,15.10
2022-10-17T04:17:00.666Z,17.58
2022-10-17T04:19:30.004Z,15.85
2022-10-17T04:21:58.226Z,14.07
2022-10-17T04:24:29.024Z,18.02
2022-10-17T04:27:20.184Z,24.25
2022-10-17T04:29:48.627Z,16.35
2022-10-17T04:32:24.707Z,13.75
2022-10-17T04:35:15.105Z,12.33
2022-10-17T04:37:47.902Z,20.42
2022-10-17T04:40:21.057Z,15.32
2022-10-17T04:42:49.999Z,17.88
2022-10-17T04:45:21.558Z,14.80
2022-10-17T04:48:10.090Z,15.20
2022-10-17T04:50:38.080Z,15.43
2022-10-17T04:53:27.876Z,15.90
2022-10-17T04:55:56.375Z,14.85
2022-10-17T04:58:24.919Z,16.00
2022-10-17T05:00:53.476Z,15.98
2022-10-17T05:03:24.360Z,13.40
2022-10-17T05:05:52.501Z,13.10
2022-10-17T05:08:20.752Z,15.77
2022-10-17T05:10:48.699Z,14.82
2022-10-17T05:13:16.569Z,12.00
2022-10-17T05:15:44.692Z,17.92
2022-10-17T05:18:13.783Z,12.40
2022-10-17T05:20:43.820Z,16.42
2022-10-17T05:23:12.206Z,19.95
2022-10-17T05:28:12.716Z,14.80
2022-10-17T05:30:43.050Z,12.35
2022-10-17T05:33:11.312Z,13.88
2022-10-17T05:35:39.512Z,19.08
2022-10-17T05:38:07.723Z,16.75
2022-10-17T05:40:41.755Z,16.63
2022-10-17T05:43:09.910Z,13.48
2022-10-17T05:45:41.728Z,20.35
2022-10-17T05:48:14.764Z,20.17
2022-10-17T05:50:42.703Z,17.58
2022-10-17T05:53:17.093Z,15.43
2022-10-17T05:56:00.427Z,13.63
2022-10-17T06:01:43.617Z,12.57
2022-10-17T06:04:12.310Z,19.58
2022-10-17T06:06:41.103Z,14.35
2022-10-17T06:09:10.661Z,14.65
2022-10-17T06:11:42.795Z,13.35
2022-10-17T06:14:11.681Z,11.70
2022-10-17T06:16:41.341Z,14.90
2022-10-17T06:19:11.795Z,11.63
2022-10-17T06:21:40.030Z,12.25
2022-10-17T06:24:13.821Z,13.20
2022-10-17T06:26:43.371Z,14.80
2022-10-17T06:29:14.701Z,12.52
2022-10-17T06:31:52.067Z,12.13
2022-10-17T06:34:22.584Z,12.25
2022-10-17T06:36:50.732Z,10.35
2022-10-17T06:39:20.304Z,14.15
2022-10-17T06:41:59.138Z,13.02
2022-10-17T06:44:44.507Z,11.55
2022-10-17T06:47:38.939Z,15.70
2022-10-17T06:50:21.298Z,13.38
2022-10-17T06:53:00.092Z,11.40
2022-10-17T06:55:46.521Z,12.18
2022-10-17T06:58:30.752Z,9.38
2022-10-17T07:01:13.974Z,12.70
2022-10-17T07:03:44.039Z,11.80
2022-10-17T07:06:13.388Z,15.15
2022-10-17T07:08:44.919Z,12.88
2022-10-17T07:11:19.235Z,11.30
2022-10-17T07:13:49.243Z,12.35
2022-10-17T07:16:17.561Z,11.75
2022-10-17T07:18:52.611Z,14.40
2022-10-17T07:21:21.577Z,14.88
2022-10-17T07:23:49.871Z,13.43
2022-10-17T07:26:19.731Z,16.60
2022-10-17T07:28:53.660Z,15.05
2022-10-17T07:31:31.637Z,14.07
2022-10-17T07:34:04.614Z,17.55
2022-10-17T07:36:32.799Z,15.70
2022-10-17T07:39:03.614Z,19.03
2022-10-17T07:41:33.001Z,18.58
2022-10-17T07:44:02.643Z,20.77
2022-10-17T07:46:35.983Z,20.10
2022-10-17T07:49:04.096Z,13.93
2022-10-17T07:51:32.023Z,18.95
2022-10-17T07:54:00.178Z,13.30
2022-10-17T07:56:29.852Z,16.83
2022-10-17T07:58:58.698Z,25.67
2022-10-17T08:01:28.654Z,21.05
2022-10-17T08:03:56.606Z,15.23
2022-10-17T08:06:24.474Z,18.52
2022-10-17T08:08:52.627Z,20.00
2022-10-17T08:11:21.758Z,19.80
2022-10-17T08:13:49.725Z,17.00
2022-10-17T08:16:17.767Z,15.40
2022-10-17T08:18:45.929Z,13.35
2022-10-17T08:21:13.925Z,14.93
2022-10-17T08:23:42.122Z,12.82
2022-10-17T08:26:15.698Z,10.68
2022-10-17T08:28:44.428Z,13.50
2022-10-17T08:31:19.627Z,11.18
2022-10-17T08:33:49.745Z,11.45
2022-10-17T08:36:20.216Z,11.18
2022-10-17T08:38:52.595Z,13.02
2022-10-17T08:41:35.803Z,17.92
2022-10-17T08:44:38.082Z,10.15
2022-10-17T08:47:16.369Z,14.90
2022-10-17T08:49:51.491Z,16.70
2022-10-17T08:53:12.065Z,14.57
2022-10-17T08:55:52.009Z,13.45
2022-10-17T08:58:34.838Z,17.98
2022-10-17T09:01:36.460Z,13.38
2022-10-17T09:04:38.178Z,13.50
2022-10-17T09:07:42.997Z,17.65
2022-10-17T09:10:58.843Z,16.95
2022-10-17T09:13:54.750Z,14.15
2022-10-17T09:16:37.402Z,21.00
2022-10-17T09:19:21.457Z,22.35
2022-10-17T09:22:06.572Z,18.50
2022-10-17T09:24:48.132Z,15.13
2022-10-17T09:27:48.955Z,15.35
2022-10-17T09:30:45.063Z,16.27
2022-10-17T09:33:42.261Z,15.07
2022-10-17T09:36:22.249Z,14.73
2022-10-17T09:38:59.184Z,10.45
2022-10-17T09:41:50.281Z,12.98
2022-10-17T09:44:30.982Z,17.15
2022-10-17T09:47:24.089Z,15.70
2022-10-17T09:49:52.207Z,15.93
2022-10-17T09:52:36.974Z,16.00
2022-10-17T09:55:18.022Z,16.70
2022-10-17T09:58:03.221Z,12.60
2022-10-17T10:00:37.064Z,16.33
2022-10-17T10:03:26.109Z,15.05
2022-10-17T10:06:21.916Z,15.50
2022-10-17T10:08:55.194Z,14.75
2022-10-17T10:11:44.131Z,15.30
2022-10-17T10:14:20.987Z,14.90
2022-10-17T10:16:50.447Z,15.13
2022-10-17T10:19:29.355Z,15.27
2022-10-17T10:22:28.050Z,12.65
2022-10-17T10:25:11.298Z,17.15
2022-10-17T10:27:42.123Z,15.05
2022-10-17T10:30:30.417Z,19.45
2022-10-17T10:33:00.971Z,13.23
2022-10-17T10:35:38.934Z,14.60
2022-10-17T10:38:18.053Z,15.82
2022-10-17T10:40:51.340Z,15.05
2022-10-17T10:43:41.464Z,18.23
2022-10-17T10:46:31.483Z,17.40
2022-10-17T10:49:03.399Z,13.55
2022-10-17T10:51:49.125Z,17.80
2022-10-17T10:54:26.711Z,16.73
2022-10-17T10:56:59.598Z,14.93
2022-10-17T10:59:56.783Z,15.60
2022-10-17T11:03:18.743Z,13.27
2022-10-17T11:05:56.167Z,17.88
2022-10-17T11:08:35.614Z,14.35
2022-10-17T11:11:24.915Z,20.17
2022-10-17T11:14:42.548Z,18.77
2022-10-17T11:17:23.656Z,17.45
2022-10-17T11:20:34.420Z,12.82
2022-10-17T11:23:21.780Z,15.57
2022-10-17T11:25:54.594Z,16.92
2022-10-17T11:28:24.986Z,15.77
2022-10-17T11:31:27.094Z,13.10
2022-10-17T11:36:38.174Z,12.57
2022-10-17T11:39:10.686Z,14.75
2022-10-17T11:41:53.370Z,14.45
2022-10-17T11:44:40.626Z,21.85
2022-10-17T11:47:27.649Z,15.73
2022-10-17T11:53:08.400Z,16.20
2022-10-17T11:55:40.798Z,15.55
2022-10-17T12:01:36.626Z,16.35
2022-10-17T12:04:17.107Z,14.10
2022-10-17T12:07:19.778Z,13.55
2022-10-17T12:10:08.102Z,18.13
2022-10-17T12:12:38.349Z,15.32
2022-10-17T12:15:23.647Z,14.30
2022-10-17T12:18:03.120Z,17.90
2022-10-17T12:20:37.283Z,13.90
2022-10-17T12:23:11.476Z,16.98
2022-10-17T12:26:04.820Z,14.57
2022-10-17T12:28:46.894Z,15.68
2022-10-17T12:31:33.552Z,13.95
2022-10-17T12:34:08.441Z,15.05
2022-10-17T12:36:38.218Z,15.75
2022-10-17T12:39:11.732Z,14.32
2022-10-17T12:41:40.170Z,16.77
2022-10-17T12:44:15.152Z,15.43
2022-10-17T12:47:11.060Z,14.40
2022-10-17T12:49:53.096Z,15.25
2022-10-17T12:52:34.155Z,11.93
2022-10-17T12:55:11.945Z,15.80
2022-10-17T12:57:49.552Z,10.85
2022-10-17T13:01:11.698Z,12.10
2022-10-17T13:06:25.106Z,15.85
2022-10-17T13:09:05.598Z,13.23
2022-10-17T13:11:36.612Z,11.93
2022-10-17T13:14:14.751Z,12.07
2022-10-17T13:17:06.127Z,15.38
2022-10-17T13:19:46.222Z,13.85
2022-10-17T13:22:23.313Z,12.60
2022-10-17T13:24:53.772Z,13.07
2022-10-17T13:27:39.568Z,14.77
2022-10-17T13:30:31.110Z,14.75
2022-10-17T13:33:03.159Z,19.52
2022-10-17T13:38:32.802Z,13.98
2022-10-17T13:41:30.047Z,10.43
2022-10-17T13:43:52.339Z,17.05
2022-10-17T13:46:39.486Z,13.07
2022-10-17T13:49:40.652Z,13.88
2022-10-17T13:52:22.340Z,14.70
2022-10-17T13:54:53.961Z,13.57
2022-10-17T13:57:26.298Z,13.25
2022-10-17T14:00:00.154Z,14.95
2022-10-17T14:02:31.553Z,16.08
2022-10-17T14:08:13.347Z,17.40
2022-10-17T14:10:44.131Z,15.27
2022-10-17T14:13:25.745Z,19.42
2022-10-17T14:18:37.159Z,18.27
2022-10-17T14:24:28.950Z,17.17
2022-10-17T14:26:59.919Z,21.70
2022-10-17T14:29:51.306Z,15.73
2022-10-17T14:32:20.485Z,21.52
2022-10-17T14:35:05.620Z,28.25
2022-10-17T14:37:49.058Z,35.55
2022-10-17T14:40:23.858Z,35.88
2022-10-17T14:42:59.425Z,32.25
2022-10-17T14:45:38.818Z,25.75
2022-10-17T14:48:17.892Z,16.80
2022-10-17T14:51:10.931Z,16.77
2022-10-17T14:53:40.199Z,18.35
2022-10-17T14:56:35.981Z,18.95
2022-10-17T14:59:07.580Z,14.23
2022-10-17T15:01:39.507Z,15.25
2022-10-17T15:04:10.986Z,16.48
2022-10-17T15:09:11.673Z,12.00
2022-10-17T15:11:40.051Z,14.68
2022-10-17T15:14:08.437Z,21.23
2022-10-17T15:16:37.332Z,31.15
2022-10-17T15:19:05.419Z,39.03
2022-10-17T15:21:40.495Z,37.10
2022-10-17T15:24:11.388Z,44.13
2022-10-17T15:26:39.593Z,97.68
2022-10-17T15:29:07.687Z,110.45
2022-10-17T15:31:36.123Z,103.00
2022-10-17T15:34:04.041Z,99.88
2022-10-17T15:36:40.830Z,82.75
2022-10-17T15:39:11.113Z,62.10
2022-10-17T15:41:39.194Z,39.40
2022-10-17T15:44:07.538Z,41.33
2022-10-17T15:46:36.623Z,36.63
2022-10-17T15:49:17.959Z,33.70
2022-10-17T15:51:49.332Z,33.88
2022-10-17T15:54:18.708Z,29.02
2022-10-17T15:56:55.377Z,29.02
2022-10-17T15:59:31.031Z,30.70
2022-10-17T16:01:59.390Z,31.42
2022-10-17T16:04:29.299Z,29.42
2022-10-17T16:06:57.214Z,33.50
2022-10-17T16:09:25.320Z,34.78
2022-10-17T16:11:53.363Z,33.13
2022-10-17T16:14:21.311Z,39.30
2022-10-17T16:16:49.302Z,47.58
2022-10-17T16:19:17.391Z,54.58
2022-10-17T16:21:45.597Z,63.00
2022-10-17T16:24:13.991Z,60.75
2022-10-17T16:26:42.721Z,64.88
2022-10-17T16:29:10.752Z,63.17
2022-10-17T16:31:45.031Z,51.03
2022-10-17T16:34:16.027Z,61.78
2022-10-17T16:36:44.087Z,63.05
2022-10-17T16:39:12.322Z,49.10
2022-10-17T16:41:40.553Z,50.95
2022-10-17T16:44:13.596Z,62.40
2022-10-17T16:46:42.004Z,55.60
2022-10-17T16:49:10.907Z,42.65
2022-10-17T16:51:39.273Z,46.53
2022-10-17T16:54:07.322Z,55.33
2022-10-17T16:56:38.433Z,55.70
2022-10-17T16:59:06.635Z,58.33
2022-10-17T17:01:34.795Z,62.60
2022-10-17T17:04:04.736Z,88.05
2022-10-17T17:06:32.978Z,87.53
2022-10-17T17:09:01.216Z,87.88
2022-10-17T17:11:29.424Z,103.43
2022-10-17T17:13:59.477Z,91.40
2022-10-17T17:16:30.109Z,83.80
2022-10-17T17:19:18.662Z,77.60
2022-10-17T17:21:52.769Z,59.95
2022-10-17T17:24:21.884Z,57.85
2022-10-17T17:26:55.781Z,55.97
2022-10-17T17:29:28.203Z,55.78
2022-10-17T17:31:56.244Z,58.15
2022-10-17T17:34:24.384Z,58.70
2022-10-17T17:36:55.454Z,61.15
2022-10-17T17:39:27.151Z,64.60
2022-10-17T17:41:55.819Z,61.00
2022-10-17T17:44:24.421Z,64.57
2022-10-17T17:46:52.506Z,57.22
2022-10-17T17:49:22.044Z,52.90
2022-10-17T17:51:50.143Z,56.63
2022-10-17T17:54:18.133Z,67.85
2022-10-17T17:56:46.224Z,68.25
2022-10-17T17:59:14.894Z,72.18
2022-10-17T18:01:44.240Z,76.63
2022-10-17T18:04:12.636Z,90.72
2022-10-17T18:06:44.271Z,95.35
2022-10-17T18:09:12.612Z,96.05
2022-10-17T18:11:40.952Z,75.28
2022-10-17T18:14:14.066Z,71.97
2022-10-17T18:16:42.728Z,68.03
2022-10-17T18:19:29.248Z,54.28
2022-10-17T18:21:57.383Z,42.17
2022-10-17T18:24:30.247Z,42.13
2022-10-17T18:27:01.291Z,44.60
2022-10-17T18:29:31.538Z,46.05
2022-10-17T18:32:01.285Z,46.88
2022-10-17T18:34:30.098Z,39.88
2022-10-17T18:37:00.411Z,39.95
2022-10-17T18:39:29.634Z,46.47
2022-10-17T18:41:58.178Z,43.78
2022-10-17T18:44:27.144Z,44.80
2022-10-17T18:46:59.867Z,42.20
2022-10-17T18:49:31.268Z,38.67
2022-10-17T18:52:00.075Z,41.63
2022-10-17T18:54:29.516Z,40.00
2022-10-17T18:56:57.723Z,36.42
2022-10-17T18:59:26.254Z,36.67
2022-10-17T19:01:57.504Z,36.20
2022-10-17T19:04:27.030Z,39.90
2022-10-17T19:06:55.310Z,36.30
2022-10-17T19:09:23.436Z,33.67
2022-10-17T19:11:51.960Z,39.50
2022-10-17T19:14:20.425Z,37.85
2022-10-17T19:16:51.166Z,34.35
2022-10-17T19:19:21.230Z,31.60
2022-10-17T19:21:49.732Z,32.35
2022-10-17T19:24:25.363Z,35.97
2022-10-17T19:26:57.925Z,33.85
2022-10-17T19:29:28.514Z,33.35
2022-10-17T19:31:56.868Z,38.00
2022-10-17T19:34:25.262Z,30.80
2022-10-17T19:36:54.253Z,34.55
2022-10-17T19:39:38.409Z,32.35
2022-10-17T19:42:09.109Z,31.15
2022-10-17T19:44:46.092Z,32.63
2022-10-17T19:47:17.960Z,33.70
2022-10-17T19:49:49.904Z,33.70
2022-10-17T19:52:18.499Z,26.85
2022-10-17T19:54:47.028Z,29.17
2022-10-17T19:57:15.634Z,31.83
2022-10-17T19:59:43.897Z,29.95
2022-10-17T20:02:14.956Z,25.85
2022-10-17T20:04:54.395Z,27.75
2022-10-17T20:07:31.336Z,28.00
2022-10-17T20:09:59.417Z,29.85
2022-10-17T20:12:27.605Z,24.40
2022-10-17T20:14:55.777Z,27.35
2022-10-17T20:17:23.970Z,22.50
2022-10-17T20:19:52.357Z,25.33
2022-10-17T20:22:20.599Z,28.65
2022-10-17T20:24:48.658Z,26.10
2022-10-17T20:27:16.716Z,25.90
2022-10-17T20:29:45.048Z,26.05
2022-10-17T20:32:12.997Z,25.60
2022-10-17T20:34:41.967Z,25.25
2022-10-17T20:37:10.097Z,25.50
2022-10-17T20:39:38.340Z,25.58
2022-10-17T20:42:06.411Z,25.25
2022-10-17T20:44:34.828Z,31.40
2022-10-17T20:47:04.559Z,23.27
2022-10-17T20:49:34.582Z,26.67
2022-10-17T20:52:02.996Z,27.55
2022-10-17T20:54:31.626Z,27.45
2022-10-17T20:57:02.603Z,24.02
2022-10-17T20:59:37.508Z,24.85
2022-10-17T21:02:18.632Z,25.58
2022-10-17T21:04:48.575Z,30.40
2022-10-17T21:07:16.619Z,27.42
2022-10-17T21:10:12.158Z,24.42
2022-10-17T21:12:54.056Z,21.55
2022-10-17T21:15:23.070Z,21.77
2022-10-17T21:17:51.062Z,25.48
2022-10-17T21:20:19.067Z,25.55
2022-10-17T21:22:47.067Z,23.17
2022-10-17T21:25:15.949Z,26.88
2022-10-17T21:27:43.848Z,24.80
2022-10-17T21:30:12.133Z,25.77
2022-10-17T21:32:55.290Z,22.10
2022-10-17T21:35:23.783Z,21.95
2022-10-17T21:37:51.888Z,21.33
2022-10-17T21:40:19.932Z,22.88
2022-10-17T21:42:47.904Z,24.08
2022-10-17T21:45:25.102Z,23.05
2022-10-17T21:48:18.083Z,22.95
2022-10-17T21:50:41.793Z,27.30
2022-10-17T21:53:10.027Z,21.02
2022-10-17T21:55:38.419Z,18.80
2022-10-17T21:58:06.484Z,20.92
2022-10-17T22:00:34.618Z,22.13
2022-10-17T22:03:02.816Z,22.48
2022-10-17T22:05:31.632Z,23.23
2022-10-17T22:07:59.654Z,25.73
2022-10-17T22:10:27.875Z,23.70
2022-10-17T22:12:58.370Z,23.75
2022-10-17T22:15:26.565Z,24.48
2022-10-17T22:17:54.497Z,22.10
2022-10-17T22:20:22.454Z,22.92
2022-10-17T22:22:50.572Z,21.83
2022-10-17T22:25:18.474Z,22.38
2022-10-17T22:27:47.502Z,26.88
2022-10-17T22:30:15.983Z,22.23
2022-10-17T22:32:44.272Z,24.17
2022-10-17T22:35:12.564Z,20.75
2022-10-17T22:37:40.619Z,22.40
2022-10-17T22:40:09.271Z,23.92
2022-10-17T22:42:37.304Z,24.67
2022-10-17T22:45:05.875Z,20.70
2022-10-17T22:47:33.873Z,24.38
2022-10-17T22:50:01.806Z,21.83
2022-10-17T22:52:30.305Z,24.55
2022-10-17T22:54:58.689Z,26.25
2022-10-17T22:57:26.585Z,24.73
2022-10-17T22:59:54.527Z,23.33
2022-10-17T23:02:22.559Z,23.23
2022-10-17T23:04:50.430Z,26.80
2022-10-17T23:07:18.607Z,20.92
2022-10-17T23:09:46.573Z,22.08
2022-10-17T23:12:17.542Z,24.98
2022-10-17T23:14:45.714Z,21.58
2022-10-17T23:17:14.592Z,24.73
2022-10-17T23:19:42.559Z,25.00
2022-10-17T23:22:10.673Z,19.50
2022-10-17T23:24:38.559Z,23.52
2022-10-17T23:27:06.473Z,23.85
2022-10-17T23:29:35.251Z,20.15
2022-10-17T23:32:03.604Z,25.13
2022-10-17T23:34:31.650Z,21.52
2022-10-17T23:36:59.675Z,23.85
2022-10-17T23:39:27.508Z,23.55
2022-10-17T23:41:55.341Z,24.65
2022-10-17T23:44:23.788Z,24.17
2022-10-17T23:46:51.737Z,20.45
2022-10-17T23:49:19.543Z,22.23
2022-10-17T23:51:47.826Z,23.45
2022-10-17T23:54:15.788Z,26.15
2022-10-17T23:56:43.666Z,25.40
2022-10-17T23:59:11.727Z,23.23
